Time;durP1;ratioP1;P1;durP2;ratioP2;P2;SDS_P1;SDS_P2;PMS_P1;PMS_P2;Temp;Humidity;BMP_temperature;BMP_pressure;BME280_temperature;BME280_humidity;BME280_pressure;Samples;Min_cycle;Max_cycle;Signal;HPM_P1;HPM_P2
2023/05/22 00:02:13;;;;;;;16.20;10.07;;;14.20;99.90;;;;;;4879865;29;20308;-59
2023/05/22 00:04:39;;;;;;;22.15;11.57;;;14.20;99.90;;;;;;4879844;29;20802;-59
2023/05/22 00:07:05;;;;;;;18.42;10.95;;;14.20;99.90;;;;;;4879731;29;20185;-59
2023/05/22 00:09:31;;;;;;;21.10;12.00;;;14.20;99.90;;;;;;4879587;29;20659;-60
2023/05/22 00:11:57;;;;;;;16.40;10.88;;;14.20;99.90;;;;;;4879606;29;20196;-59
2023/05/22 00:14:22;;;;;;;17.90;10.75;;;14.20;99.90;;;;;;4879534;29;20188;-59
2023/05/22 00:16:49;;;;;;;23.45;10.75;;;14.30;99.90;;;;;;4879808;29;20188;-59
2023/05/22 00:19:15;;;;;;;20.13;10.63;;;14.30;99.90;;;;;;4879704;29;20200;-59
2023/05/22 00:21:42;;;;;;;16.77;10.27;;;14.30;99.90;;;;;;4879757;29;20574;-59
2023/05/22 00:24:08;;;;;;;13.32;9.05;;;14.50;99.90;;;;;;4879642;29;20640;-60
2023/05/22 00:26:34;;;;;;;17.33;9.15;;;14.50;99.90;;;;;;4879487;29;20181;-59
2023/05/22 00:29:00;;;;;;;15.68;9.63;;;14.50;99.90;;;;;;4879332;29;20230;-59
2023/05/22 00:31:25;;;;;;;15.65;9.65;;;14.40;99.90;;;;;;4879583;29;20189;-59
2023/05/22 00:33:51;;;;;;;18.13;9.93;;;14.30;99.90;;;;;;4879848;29;20252;-59
2023/05/22 00:36:17;;;;;;;25.60;11.10;;;14.20;99.90;;;;;;4879574;29;20188;-59
2023/05/22 00:38:43;;;;;;;18.45;10.48;;;14.30;99.90;;;;;;4879492;29;20256;-59
2023/05/22 00:41:09;;;;;;;21.05;10.88;;;14.20;99.90;;;;;;4862763;29;20324;-59
2023/05/22 00:43:37;;;;;;;22.20;9.63;;;14.10;99.90;;;;;;4879352;29;20181;-59
2023/05/22 00:46:03;;;;;;;20.27;9.95;;;14.00;99.90;;;;;;4879479;29;20185;-59
2023/05/22 00:48:29;;;;;;;17.75;10.43;;;14.00;99.90;;;;;;4879464;29;20249;-59
2023/05/22 00:50:57;;;;;;;19.23;10.13;;;14.00;99.90;;;;;;4881999;29;20207;-59
2023/05/22 00:53:24;;;;;;;20.83;10.82;;;14.00;99.90;;;;;;4883055;29;20189;-59
2023/05/22 00:55:52;;;;;;;22.40;12.48;;;13.90;99.90;;;;;;4883067;29;20181;-59
2023/05/22 00:58:18;;;;;;;23.13;12.82;;;14.00;99.90;;;;;;4882910;29;20538;-59
2023/05/22 01:00:47;;;;;;;21.95;12.85;;;14.00;99.90;;;;;;4883256;29;20200;-59
2023/05/22 01:03:13;;;;;;;22.27;14.60;;;14.00;99.90;;;;;;4882707;29;20232;-59
2023/05/22 01:05:40;;;;;;;23.50;16.65;;;14.00;99.90;;;;;;4883041;29;20188;-59
2023/05/22 01:08:08;;;;;;;26.13;17.35;;;14.00;99.90;;;;;;4882952;29;20606;-59
2023/05/22 01:10:36;;;;;;;31.33;17.88;;;14.00;99.90;;;;;;4882769;29;20191;-59
2023/05/22 01:13:23;;;;;;;34.17;18.17;;;14.00;99.90;;;;;;4882641;29;20213;-59
2023/05/22 01:15:59;;;;;;;32.03;19.23;;;14.00;99.90;;;;;;4882863;29;20173;-59
2023/05/22 01:18:39;;;;;;;30.40;18.95;;;14.00;99.90;;;;;;4882831;29;20591;-59
2023/05/22 01:21:14;;;;;;;30.80;19.45;;;14.00;99.90;;;;;;4882394;29;20205;-59
2023/05/22 01:24:10;;;;;;;34.85;19.40;;;14.00;99.90;;;;;;4882685;29;20192;-59
2023/05/22 01:27:08;;;;;;;33.00;20.10;;;13.90;99.90;;;;;;4882558;29;20185;-59
2023/05/22 01:29:46;;;;;;;32.95;19.75;;;14.00;99.90;;;;;;4882391;29;20181;-59
2023/05/22 01:32:16;;;;;;;29.63;19.02;;;13.90;99.90;;;;;;4882470;29;20184;-59
2023/05/22 01:34:44;;;;;;;32.97;20.25;;;13.90;99.90;;;;;;4882449;29;20178;-59
2023/05/22 01:37:11;;;;;;;33.17;21.30;;;14.00;99.90;;;;;;4882281;29;20229;-59
2023/05/22 01:39:37;;;;;;;29.55;20.15;;;14.00;99.90;;;;;;4882445;29;20193;-59
2023/05/22 01:42:04;;;;;;;34.80;21.75;;;14.00;99.90;;;;;;4881978;29;20579;-59
2023/05/22 01:44:30;;;;;;;35.65;21.83;;;14.10;99.90;;;;;;4882312;29;20192;-59
2023/05/22 01:46:59;;;;;;;39.33;22.27;;;14.10;99.90;;;;;;4882239;29;20181;-60
2023/05/22 01:49:26;;;;;;;35.45;24.10;;;14.10;99.90;;;;;;4882207;29;20182;-59
2023/05/22 01:51:54;;;;;;;32.78;23.38;;;14.10;99.90;;;;;;4882112;29;20181;-59
2023/05/22 01:54:41;;;;;;;37.17;24.40;;;14.10;99.90;;;;;;4881858;29;20196;-59
2023/05/22 01:57:13;;;;;;;37.72;23.15;;;14.20;99.90;;;;;;4882086;29;20221;-59
2023/05/22 01:59:44;;;;;;;38.28;24.92;;;14.10;99.90;;;;;;4874830;29;20752;-59
2023/05/22 02:02:12;;;;;;;34.28;24.05;;;14.10;99.90;;;;;;4881563;29;20224;-59
2023/05/22 02:04:41;;;;;;;34.08;24.63;;;14.10;99.90;;;;;;4882027;29;20248;-59
2023/05/22 02:07:10;;;;;;;37.00;24.65;;;14.00;99.90;;;;;;4881751;29;20176;-59
2023/05/22 02:09:37;;;;;;;35.35;23.58;;;14.00;99.90;;;;;;4881953;29;20635;-59
2023/05/22 02:12:04;;;;;;;35.72;24.40;;;14.10;99.90;;;;;;4882167;29;20512;-59
2023/05/22 02:14:30;;;;;;;42.72;25.33;;;14.10;99.90;;;;;;4881673;29;20727;-59
2023/05/22 02:16:56;;;;;;;35.92;24.77;;;14.10;99.90;;;;;;4881546;29;20534;-60
2023/05/22 02:19:23;;;;;;;34.88;23.83;;;14.20;99.90;;;;;;4881561;29;20181;-59
2023/05/22 02:21:48;;;;;;;35.38;23.65;;;14.20;99.90;;;;;;4864872;29;20212;-59
2023/05/22 02:24:14;;;;;;;33.22;23.15;;;14.20;99.90;;;;;;4881688;29;20200;-59
2023/05/22 02:26:41;;;;;;;33.85;22.58;;;14.20;99.90;;;;;;4881467;29;20216;-59
2023/05/22 02:29:07;;;;;;;33.10;22.55;;;14.20;99.90;;;;;;4881448;29;20208;-59
2023/05/22 02:31:32;;;;;;;35.88;22.75;;;14.20;99.90;;;;;;4881444;29;20209;-60
2023/05/22 02:33:58;;;;;;;32.90;22.90;;;14.20;99.90;;;;;;4881267;29;20182;-59
2023/05/22 02:36:25;;;;;;;33.00;21.65;;;14.30;99.90;;;;;;4881425;29;20226;-59
2023/05/22 02:38:51;;;;;;;29.65;20.90;;;14.20;99.90;;;;;;4881327;29;20201;-59
2023/05/22 02:41:17;;;;;;;30.42;21.65;;;14.20;99.90;;;;;;4881152;29;20205;-59
2023/05/22 02:43:42;;;;;;;33.75;22.05;;;14.20;99.90;;;;;;4881073;29;20714;-59
2023/05/22 02:46:08;;;;;;;31.42;22.65;;;14.20;99.90;;;;;;4881206;29;20290;-59
2023/05/22 02:48:34;;;;;;;33.03;20.70;;;14.30;99.90;;;;;;4881014;29;20666;-59
2023/05/22 02:50:59;;;;;;;31.48;20.85;;;14.30;99.90;;;;;;4864277;29;20182;-59
2023/05/22 02:53:25;;;;;;;28.77;20.70;;;14.40;99.90;;;;;;4881140;29;20185;-59
2023/05/22 02:55:51;;;;;;;26.88;20.08;;;14.30;99.90;;;;;;4880886;29;20531;-59
2023/05/22 02:58:17;;;;;;;32.72;20.92;;;14.30;99.90;;;;;;4880982;29;20651;-59
2023/05/22 03:00:44;;;;;;;28.27;21.23;;;14.20;99.90;;;;;;4880913;29;20230;-60
2023/05/22 03:03:10;;;;;;;27.15;20.65;;;14.30;99.90;;;;;;4880511;29;20289;-59
2023/05/22 03:05:37;;;;;;;26.77;21.23;;;14.40;99.90;;;;;;4880644;29;20264;-59
2023/05/22 03:08:03;;;;;;;25.25;20.27;;;14.30;99.90;;;;;;4880818;29;20268;-59
2023/05/22 03:10:28;;;;;;;29.98;21.33;;;14.20;99.90;;;;;;4880670;29;20715;-59
2023/05/22 03:12:55;;;;;;;31.75;20.27;;;14.20;99.90;;;;;;4879825;29;20265;-59
2023/05/22 03:15:20;;;;;;;32.65;21.63;;;14.30;99.90;;;;;;4880632;29;20189;-60
2023/05/22 03:17:46;;;;;;;29.92;20.55;;;14.20;99.90;;;;;;4880460;29;20239;-59
2023/05/22 03:20:15;;;;;;;31.23;20.77;;;14.20;99.90;;;;;;4880367;29;20230;-59
2023/05/22 03:22:42;;;;;;;30.75;22.38;;;14.10;99.90;;;;;;4880473;29;20277;-59
2023/05/22 03:25:08;;;;;;;32.65;23.13;;;14.10;99.90;;;;;;4880356;29;20183;-60
2023/05/22 03:27:34;;;;;;;29.75;22.05;;;14.20;99.90;;;;;;4880452;29;20188;-59
2023/05/22 03:30:00;;;;;;;34.55;23.80;;;14.10;99.90;;;;;;4880325;29;20177;-59
2023/05/22 03:32:26;;;;;;;39.28;24.13;;;14.00;99.90;;;;;;4880265;29;20181;-59
2023/05/22 03:34:51;;;;;;;36.78;24.83;;;14.00;99.90;;;;;;4880538;29;20628;-59
2023/05/22 03:37:17;;;;;;;44.25;27.13;;;14.00;99.90;;;;;;4880164;29;20181;-59
2023/05/22 03:39:43;;;;;;;48.28;29.63;;;14.00;99.90;;;;;;4880287;29;20189;-59
2023/05/22 03:42:08;;;;;;;45.60;30.45;;;14.10;99.90;;;;;;4879986;29;20627;-59
2023/05/22 03:44:34;;;;;;;48.90;31.38;;;14.00;99.90;;;;;;4880046;29;20186;-59
2023/05/22 03:47:00;;;;;;;52.38;30.63;;;14.10;99.90;;;;;;4879876;29;20521;-59
2023/05/22 03:49:26;;;;;;;51.67;31.70;;;14.20;99.90;;;;;;4879837;29;20186;-59
2023/05/22 03:51:51;;;;;;;50.55;31.52;;;14.10;99.90;;;;;;4880067;29;20241;-59
2023/05/22 03:54:17;;;;;;;51.53;32.17;;;14.20;99.90;;;;;;4879862;29;20188;-58
2023/05/22 03:56:43;;;;;;;53.63;33.20;;;14.20;99.90;;;;;;4879942;29;20186;-59
2023/05/22 03:59:08;;;;;;;54.25;33.25;;;14.20;99.90;;;;;;4879881;29;20181;-60
2023/05/22 04:01:37;;;;;;;50.50;32.92;;;14.10;99.90;;;;;;4879698;29;20257;-59
2023/05/22 04:04:04;;;;;;;54.05;34.92;;;14.00;99.90;;;;;;4879530;29;20825;-59
2023/05/22 04:06:31;;;;;;;52.03;33.13;;;14.00;99.90;;;;;;4879944;29;20178;-59
2023/05/22 04:08:57;;;;;;;55.55;34.25;;;14.00;99.90;;;;;;4879748;29;20186;-59
2023/05/22 04:11:23;;;;;;;52.55;34.40;;;14.10;99.90;;;;;;4879775;29;20224;-59
2023/05/22 04:13:51;;;;;;;55.65;35.05;;;14.10;99.90;;;;;;4879647;29;20217;-59
2023/05/22 04:16:17;;;;;;;54.20;36.28;;;14.20;99.90;;;;;;4879513;29;20539;-59
2023/05/22 04:18:43;;;;;;;55.05;36.13;;;14.30;99.90;;;;;;4879681;29;20181;-58
2023/05/22 04:21:09;;;;;;;52.15;34.80;;;14.20;99.90;;;;;;4879721;29;20186;-59
2023/05/22 04:23:34;;;;;;;56.40;34.92;;;14.20;99.90;;;;;;4879522;29;20178;-59
2023/05/22 04:26:01;;;;;;;54.33;34.70;;;14.20;99.90;;;;;;4879542;29;20229;-59
2023/05/22 04:28:29;;;;;;;62.63;35.28;;;14.10;99.90;;;;;;4879526;29;20181;-59
2023/05/22 04:30:56;;;;;;;58.42;35.75;;;14.30;99.90;;;;;;4879339;29;20320;-58
2023/05/22 04:33:23;;;;;;;58.15;34.63;;;14.20;99.90;;;;;;4879493;29;20251;-59
2023/05/22 04:35:49;;;;;;;54.95;35.55;;;14.20;99.90;;;;;;4879461;29;20181;-59
2023/05/22 04:38:17;;;;;;;55.40;35.70;;;14.20;99.90;;;;;;4879505;29;20674;-59
2023/05/22 04:40:43;;;;;;;60.17;34.97;;;14.30;99.90;;;;;;4879285;29;20181;-58
2023/05/22 04:43:11;;;;;;;52.35;33.38;;;14.30;99.90;;;;;;4879288;29;20365;-59
2023/05/22 04:45:38;;;;;;;53.60;33.75;;;14.30;99.90;;;;;;4879153;29;20189;-59
2023/05/22 04:48:04;;;;;;;50.40;34.55;;;14.30;99.90;;;;;;4863045;29;20181;-59
2023/05/22 04:50:31;;;;;;;58.22;35.83;;;14.40;99.90;;;;;;4879327;29;20183;-59
2023/05/22 04:52:58;;;;;;;58.75;35.13;;;14.40;99.90;;;;;;4879336;29;20334;-59
2023/05/22 04:55:24;;;;;;;53.45;35.33;;;14.40;99.90;;;;;;4879680;29;20192;-59
2023/05/22 04:57:51;;;;;;;59.08;36.33;;;14.40;99.90;;;;;;4879183;29;20252;-59
2023/05/22 05:00:17;;;;;;;53.47;34.92;;;14.40;99.90;;;;;;4879048;29;20662;-59
2023/05/22 05:02:43;;;;;;;57.10;35.60;;;14.50;99.90;;;;;;4879034;29;20213;-59
2023/05/22 05:05:09;;;;;;;51.92;33.75;;;14.40;99.90;;;;;;4878743;29;20244;-59
2023/05/22 05:07:38;;;;;;;55.67;35.13;;;14.50;99.90;;;;;;4877997;29;20181;-56
2023/05/22 05:10:05;;;;;;;52.08;35.28;;;14.50;99.90;;;;;;4879106;29;20190;-59
2023/05/22 05:12:31;;;;;;;52.40;34.42;;;14.50;99.90;;;;;;4878861;29;20185;-59
2023/05/22 05:14:56;;;;;;;58.13;35.05;;;14.40;99.90;;;;;;4878872;29;20188;-60
2023/05/22 05:17:22;;;;;;;52.33;34.40;;;14.40;99.90;;;;;;4879175;29;20227;-59
2023/05/22 05:19:48;;;;;;;52.65;35.22;;;14.50;99.90;;;;;;4879186;29;20272;-59
2023/05/22 05:22:14;;;;;;;50.78;33.55;;;14.50;99.90;;;;;;4862250;29;20362;-59
2023/05/22 05:24:39;;;;;;;54.30;34.25;;;14.60;99.90;;;;;;4878971;29;20653;-59
2023/05/22 05:27:05;;;;;;;49.28;32.85;;;14.60;99.90;;;;;;4878832;29;20185;-59
2023/05/22 05:29:31;;;;;;;51.53;32.78;;;14.60;99.90;;;;;;4879208;29;20727;-59
2023/05/22 05:31:56;;;;;;;50.28;32.78;;;14.60;99.90;;;;;;4879030;29;20185;-60
2023/05/22 05:34:22;;;;;;;45.92;32.55;;;14.60;99.90;;;;;;4878863;29;20224;-59
2023/05/22 05:36:47;;;;;;;53.35;33.00;;;14.60;99.90;;;;;;4881085;29;20275;-59
2023/05/22 05:39:13;;;;;;;46.85;31.88;;;14.50;99.90;;;;;;4882296;29;20181;-59
2023/05/22 05:41:39;;;;;;;47.90;31.92;;;14.50;99.90;;;;;;4882129;29;20220;-59
2023/05/22 05:44:04;;;;;;;45.20;32.30;;;14.60;99.90;;;;;;4865566;29;20196;-59
2023/05/22 05:46:30;;;;;;;50.72;32.85;;;14.60;99.90;;;;;;4882074;29;20600;-60
2023/05/22 05:48:57;;;;;;;48.20;32.45;;;14.60;99.90;;;;;;4882052;29;20631;-59
2023/05/22 05:51:22;;;;;;;48.78;31.77;;;14.70;99.90;;;;;;4882124;29;20260;-60
2023/05/22 05:53:48;;;;;;;39.78;30.40;;;14.60;99.90;;;;;;4882001;29;20277;-59
2023/05/22 05:56:14;;;;;;;50.05;32.67;;;14.50;99.90;;;;;;4881911;29;20185;-59
2023/05/22 05:58:40;;;;;;;46.55;32.08;;;14.50;99.90;;;;;;4881866;29;20185;-59
2023/05/22 06:01:05;;;;;;;43.15;30.92;;;14.40;99.90;;;;;;4882077;29;20236;-59
2023/05/22 06:03:31;;;;;;;42.88;30.85;;;14.40;99.90;;;;;;4881920;29;20582;-60
2023/05/22 06:05:58;;;;;;;46.10;29.88;;;14.50;99.90;;;;;;4881920;29;20174;-59
2023/05/22 06:08:23;;;;;;;45.35;30.83;;;14.50;99.90;;;;;;4881697;29;20185;-59
2023/05/22 06:10:49;;;;;;;43.53;31.08;;;14.50;99.90;;;;;;4881751;29;20272;-59
2023/05/22 06:13:15;;;;;;;46.50;30.65;;;14.50;99.90;;;;;;4881570;29;20217;-59
2023/05/22 06:15:40;;;;;;;47.67;31.60;;;14.50;99.90;;;;;;4865205;29;20189;-59
2023/05/22 06:18:06;;;;;;;42.35;30.02;;;14.60;99.90;;;;;;4881707;29;20225;-59
2023/05/22 06:20:31;;;;;;;39.85;29.98;;;14.60;99.90;;;;;;4881512;29;20186;-60
2023/05/22 06:22:57;;;;;;;40.70;29.13;;;14.50;99.90;;;;;;4881413;29;20252;-60
2023/05/22 06:25:24;;;;;;;42.85;29.42;;;14.60;99.90;;;;;;4881403;29;20194;-59
2023/05/22 06:27:50;;;;;;;40.38;28.55;;;14.70;99.90;;;;;;4881300;29;20192;-59
2023/05/22 06:30:16;;;;;;;41.05;27.70;;;14.70;99.90;;;;;;4881542;29;20177;-59
2023/05/22 06:32:42;;;;;;;38.45;27.52;;;14.70;99.90;;;;;;4881495;29;20632;-59
2023/05/22 06:35:10;;;;;;;36.70;28.08;;;14.80;99.90;;;;;;4864862;29;20220;-60
2023/05/22 06:37:37;;;;;;;40.83;28.30;;;14.80;99.90;;;;;;4881236;29;20635;-59
2023/05/22 06:40:04;;;;;;;38.97;27.45;;;14.80;99.90;;;;;;4881190;29;20181;-59
2023/05/22 06:42:31;;;;;;;36.20;26.70;;;14.80;99.90;;;;;;4881249;29;20216;-59
2023/05/22 06:44:57;;;;;;;35.70;27.23;;;14.70;99.90;;;;;;4881214;29;20639;-59
2023/05/22 06:47:22;;;;;;;42.47;27.75;;;14.80;99.90;;;;;;4880278;29;20205;-59
2023/05/22 06:49:48;;;;;;;40.85;26.30;;;14.90;99.90;;;;;;4881400;29;20185;-60
2023/05/22 06:52:14;;;;;;;45.10;28.40;;;14.90;99.90;;;;;;4880936;29;20329;-59
2023/05/22 06:54:41;;;;;;;39.38;27.75;;;14.90;99.90;;;;;;4880894;29;20197;-59
2023/05/22 06:57:07;;;;;;;35.03;27.88;;;14.90;99.90;;;;;;4880772;29;20193;-60
2023/05/22 06:59:33;;;;;;;38.47;26.55;;;14.90;99.90;;;;;;4881032;29;20178;-60
2023/05/22 07:01:59;;;;;;;38.15;28.63;;;14.90;99.90;;;;;;4880892;29;20243;-59
2023/05/22 07:04:24;;;;;;;42.35;28.95;;;14.90;99.90;;;;;;4880683;29;20629;-59
2023/05/22 07:06:51;;;;;;;40.80;29.02;;;14.80;99.90;;;;;;4880788;29;20237;-59
2023/05/22 07:09:18;;;;;;;42.97;30.80;;;14.80;99.90;;;;;;4880611;29;20639;-60
2023/05/22 07:11:45;;;;;;;39.33;28.90;;;14.80;99.90;;;;;;4880568;29;20189;-60
2023/05/22 07:14:11;;;;;;;42.83;29.67;;;14.70;99.90;;;;;;4880563;29;20681;-59
2023/05/22 07:16:40;;;;;;;39.40;30.20;;;14.60;99.90;;;;;;4880678;29;20226;-59
2023/05/22 07:19:07;;;;;;;42.15;30.70;;;14.50;99.90;;;;;;4880637;29;20541;-59
2023/05/22 07:21:34;;;;;;;39.03;29.20;;;14.50;99.90;;;;;;4880382;29;20548;-60
2023/05/22 07:24:07;;;;;;;37.45;29.55;;;14.50;99.90;;;;;;4880424;29;20267;-59
2023/05/22 07:26:34;;;;;;;40.47;29.73;;;14.70;99.90;;;;;;4880529;29;20183;-60
2023/05/22 07:29:00;;;;;;;38.38;29.70;;;14.80;99.90;;;;;;4880391;29;20237;-59
2023/05/22 07:31:25;;;;;;;42.65;29.02;;;14.80;99.90;;;;;;4880325;29;20190;-59
2023/05/22 07:33:51;;;;;;;38.25;28.83;;;14.90;99.90;;;;;;4880316;29;20182;-59
2023/05/22 07:36:17;;;;;;;35.55;27.25;;;15.00;99.90;;;;;;4880218;29;20178;-59
2023/05/22 07:38:44;;;;;;;36.28;27.73;;;15.00;99.90;;;;;;4880034;29;20193;-60
2023/05/22 07:41:09;;;;;;;38.58;29.05;;;15.10;99.90;;;;;;4880198;29;20222;-60
2023/05/22 07:43:35;;;;;;;34.55;26.63;;;15.00;99.90;;;;;;4880300;29;20181;-59
2023/05/22 07:46:01;;;;;;;35.58;28.00;;;15.10;99.90;;;;;;4880152;29;20177;-59
2023/05/22 07:48:26;;;;;;;35.38;27.58;;;15.10;99.90;;;;;;4880084;29;20559;-59
2023/05/22 07:50:52;;;;;;;39.03;28.35;;;15.10;99.90;;;;;;4880038;29;20245;-59
2023/05/22 07:53:18;;;;;;;42.42;29.20;;;15.10;99.90;;;;;;4879901;29;20667;-59
2023/05/22 07:55:43;;;;;;;39.15;29.30;;;15.00;99.90;;;;;;4879986;29;20589;-59
2023/05/22 07:58:09;;;;;;;43.50;30.10;;;14.90;99.90;;;;;;4879801;29;20192;-59
2023/05/22 08:00:35;;;;;;;42.90;31.63;;;14.90;99.90;;;;;;4879824;29;20193;-59
2023/05/22 08:03:01;;;;;;;43.38;30.33;;;15.00;99.90;;;;;;4879498;29;20224;-59
2023/05/22 08:05:26;;;;;;;43.45;29.45;;;15.10;99.90;;;;;;4879801;29;20185;-59
2023/05/22 08:07:52;;;;;;;40.45;28.95;;;15.20;99.90;;;;;;4879658;29;20185;-59
2023/05/22 08:10:18;;;;;;;40.85;28.95;;;15.20;99.90;;;;;;4879647;29;20205;-59
2023/05/22 08:12:44;;;;;;;37.50;27.20;;;15.30;99.90;;;;;;4879793;29;20185;-60
2023/05/22 08:15:10;;;;;;;35.72;27.40;;;15.30;99.90;;;;;;4879704;29;20189;-60
2023/05/22 08:17:35;;;;;;;36.65;27.08;;;15.30;99.90;;;;;;4879654;29;20189;-59
2023/05/22 08:20:01;;;;;;;37.80;27.02;;;15.40;99.90;;;;;;4879571;29;20181;-59
2023/05/22 08:22:30;;;;;;;32.85;24.80;;;15.50;99.90;;;;;;4879312;29;20213;-59
2023/05/22 08:24:56;;;;;;;38.42;25.17;;;15.40;99.90;;;;;;4879472;29;20674;-60
2023/05/22 08:27:22;;;;;;;35.42;24.20;;;15.30;99.90;;;;;;4879653;29;20205;-60
2023/05/22 08:29:47;;;;;;;35.42;25.55;;;15.40;99.90;;;;;;4879491;29;20173;-60
2023/05/22 08:32:13;;;;;;;33.42;25.17;;;15.50;99.90;;;;;;4879490;29;20265;-59
2023/05/22 08:34:41;;;;;;;37.30;26.67;;;15.50;99.90;;;;;;4879463;29;20189;-59
2023/05/22 08:37:08;;;;;;;34.67;26.33;;;15.40;99.90;;;;;;4879332;29;20201;-59
2023/05/22 08:39:33;;;;;;;39.42;27.00;;;15.50;99.90;;;;;;4879449;29;20190;-60
2023/05/22 08:42:01;;;;;;;35.08;25.88;;;15.60;99.90;;;;;;4879624;29;20228;-59
2023/05/22 08:44:26;;;;;;;42.67;26.77;;;15.50;99.90;;;;;;4879283;29;20280;-59
2023/05/22 08:46:55;;;;;;;32.42;25.17;;;15.50;99.90;;;;;;4879262;29;20687;-59
2023/05/22 08:49:21;;;;;;;33.90;24.27;;;15.50;99.90;;;;;;4879191;29;20208;-60
2023/05/22 08:51:53;;;;;;;34.75;25.75;;;15.60;99.90;;;;;;4879195;29;20177;-60
2023/05/22 08:54:23;;;;;;;33.85;25.73;;;15.70;99.90;;;;;;4879510;29;20230;-59
2023/05/22 08:56:51;;;;;;;40.67;26.05;;;15.80;99.90;;;;;;4879322;29;20276;-59
2023/05/22 08:59:18;;;;;;;31.42;24.58;;;15.80;99.90;;;;;;4879238;29;20261;-59
2023/05/22 09:01:45;;;;;;;36.45;26.33;;;15.80;99.90;;;;;;4879176;29;20688;-60
2023/05/22 09:04:11;;;;;;;36.05;25.95;;;15.80;99.90;;;;;;4879145;29;20319;-59
2023/05/22 09:06:37;;;;;;;39.58;26.20;;;15.90;99.90;;;;;;4871762;29;20552;-59
2023/05/22 09:09:03;;;;;;;42.17;26.58;;;16.00;99.90;;;;;;4879207;29;20186;-59
2023/05/22 09:11:29;;;;;;;40.13;26.92;;;16.10;99.90;;;;;;4881171;29;20271;-59
2023/05/22 09:14:10;;;;;;;38.20;26.77;;;16.30;99.90;;;;;;4882728;29;20655;-59
2023/05/22 09:16:51;;;;;;;34.88;25.35;;;16.20;99.90;;;;;;4882576;29;20181;-59
2023/05/22 09:19:17;;;;;;;40.95;26.05;;;16.30;99.90;;;;;;4882810;29;20635;-59
2023/05/22 09:21:43;;;;;;;36.35;24.80;;;16.40;99.90;;;;;;4882629;29;20220;-59
2023/05/22 09:24:09;;;;;;;34.08;23.83;;;16.40;99.90;;;;;;4882767;29;20263;-59
2023/05/22 09:26:39;;;;;;;36.30;23.52;;;16.50;99.90;;;;;;4882585;29;20185;-59
2023/05/22 09:29:07;;;;;;;38.03;24.02;;;16.50;99.90;;;;;;4882480;29;20264;-59
2023/05/22 09:31:42;;;;;;;36.05;23.65;;;16.50;99.90;;;;;;4882563;29;20721;-59
2023/05/22 09:34:10;;;;;;;38.10;23.33;;;16.50;99.90;;;;;;4882719;29;20639;-60
2023/05/22 09:36:35;;;;;;;35.30;23.42;;;16.60;99.90;;;;;;4882386;29;20698;-59
2023/05/22 09:39:03;;;;;;;36.17;24.10;;;16.60;99.90;;;;;;4882470;29;20248;-59
2023/05/22 09:41:30;;;;;;;35.72;23.00;;;16.70;99.90;;;;;;4882132;29;20669;-59
2023/05/22 09:43:55;;;;;;;35.80;23.20;;;16.80;99.90;;;;;;4882157;29;20174;-60
2023/05/22 09:46:21;;;;;;;39.80;24.10;;;16.90;99.90;;;;;;4882345;29;20313;-59
2023/05/22 09:48:53;;;;;;;34.53;23.85;;;16.90;99.90;;;;;;4882077;29;20535;-59
2023/05/22 09:51:22;;;;;;;34.40;23.73;;;16.90;99.90;;;;;;4882259;29;20185;-59
2023/05/22 09:53:50;;;;;;;32.17;22.80;;;16.80;99.90;;;;;;4882125;29;20196;-59
2023/05/22 09:56:17;;;;;;;34.42;22.55;;;16.90;99.90;;;;;;4881867;29;20173;-59
2023/05/22 09:58:45;;;;;;;36.20;22.65;;;17.00;99.90;;;;;;4882087;29;20178;-61
2023/05/22 10:01:12;;;;;;;40.45;22.63;;;17.10;99.90;;;;;;4881975;29;20265;-59
2023/05/22 10:03:41;;;;;;;35.92;24.23;;;17.10;99.90;;;;;;4881941;29;20229;-59
2023/05/22 10:06:10;;;;;;;37.90;23.73;;;17.10;99.90;;;;;;4882018;29;20173;-59
2023/05/22 10:08:42;;;;;;;34.10;23.73;;;17.10;99.90;;;;;;4881752;29;20185;-59
2023/05/22 10:11:09;;;;;;;31.00;22.52;;;17.20;99.90;;;;;;4882018;29;20177;-60
2023/05/22 10:13:36;;;;;;;33.90;22.48;;;17.30;99.90;;;;;;4882091;29;20233;-59
2023/05/22 10:16:03;;;;;;;37.08;22.10;;;17.30;99.90;;;;;;4881733;29;20178;-59
2023/05/22 10:18:29;;;;;;;34.50;22.52;;;17.40;99.90;;;;;;4881564;29;20647;-59
2023/05/22 10:20:56;;;;;;;31.30;22.10;;;17.50;99.90;;;;;;4881634;29;20177;-60
2023/05/22 10:23:23;;;;;;;34.60;21.80;;;17.60;99.90;;;;;;4881320;29;20216;-59
2023/05/22 10:25:49;;;;;;;31.02;20.95;;;17.70;99.90;;;;;;4881470;29;20192;-59
2023/05/22 10:28:23;;;;;;;30.52;22.45;;;17.70;99.90;;;;;;4881513;29;20174;-59
2023/05/22 10:31:01;;;;;;;34.50;22.45;;;17.80;99.90;;;;;;4881660;29;20177;-59
2023/05/22 10:33:55;;;;;;;31.95;22.35;;;17.90;99.90;;;;;;4881541;29;20183;-59
2023/05/22 10:36:57;;;;;;;36.38;22.83;;;17.80;99.90;;;;;;4881500;29;20181;-60
2023/05/22 10:39:37;;;;;;;31.83;22.20;;;17.90;99.90;;;;;;4864652;29;20173;-59
2023/05/22 10:42:03;;;;;;;30.30;22.48;;;17.80;99.90;;;;;;4881178;29;20201;-59
2023/05/22 10:44:29;;;;;;;31.55;21.67;;;18.00;99.90;;;;;;4881221;29;20537;-59
2023/05/22 10:46:54;;;;;;;31.02;20.85;;;18.00;99.90;;;;;;4881402;29;20185;-59
2023/05/22 10:49:22;;;;;;;31.52;21.17;;;18.00;99.90;;;;;;4881181;29;20268;-59
2023/05/22 10:51:48;;;;;;;30.08;20.58;;;18.00;99.90;;;;;;4881170;29;20177;-59
2023/05/22 10:54:14;;;;;;;27.70;21.15;;;18.10;99.90;;;;;;4881083;29;20200;-59
2023/05/22 10:56:40;;;;;;;28.52;20.38;;;18.00;99.90;;;;;;4880836;29;20644;-59
2023/05/22 10:59:06;;;;;;;33.45;20.42;;;18.10;99.90;;;;;;4881054;29;20186;-59
2023/05/22 11:01:39;;;;;;;31.52;21.30;;;18.10;99.90;;;;;;4880944;29;20213;-60
2023/05/22 11:04:07;;;;;;;30.77;20.80;;;18.10;99.90;;;;;;4881179;29;20323;-59
2023/05/22 11:06:42;;;;;;;31.55;20.92;;;18.20;99.90;;;;;;4880972;29;20294;-59
2023/05/22 11:09:37;;;;;;;30.73;20.25;;;18.40;99.90;;;;;;4880708;29;20168;-60
2023/05/22 11:12:18;;;;;;;30.92;20.10;;;18.50;99.90;;;;;;4880759;29;20738;-59
2023/05/22 11:15:06;;;;;;;33.15;20.63;;;18.70;99.90;;;;;;4880767;29;20328;-60
2023/05/22 11:17:35;;;;;;;32.35;20.55;;;18.80;99.90;;;;;;4880517;29;20186;-60
2023/05/22 11:20:06;;;;;;;28.45;20.65;;;18.90;99.90;;;;;;4880757;29;20177;-59
2023/05/22 11:22:34;;;;;;;32.97;19.67;;;19.00;99.90;;;;;;4880681;29;20213;-59
2023/05/22 11:25:03;;;;;;;34.03;20.08;;;19.00;99.90;;;;;;4880857;29;20602;-58
2023/05/22 11:27:29;;;;;;;29.10;19.35;;;19.20;99.90;;;;;;4880425;29;20184;-59
2023/05/22 11:29:55;;;;;;;31.42;20.17;;;19.30;99.90;;;;;;4880460;29;20201;-60
2023/05/22 11:32:23;;;;;;;30.27;19.73;;;19.50;99.90;;;;;;4880309;29;20552;-59
2023/05/22 11:34:49;;;;;;;32.95;20.23;;;19.60;99.90;;;;;;4880071;29;20181;-59
2023/05/22 11:37:20;;;;;;;30.33;22.23;;;19.50;99.90;;;;;;4880409;29;20181;-59
2023/05/22 11:39:57;;;;;;;34.30;21.20;;;19.60;99.90;;;;;;4863626;29;20178;-59
2023/05/22 11:42:23;;;;;;;31.58;20.40;;;19.60;99.90;;;;;;4880148;29;20201;-59
2023/05/22 11:44:49;;;;;;;31.05;19.90;;;19.60;99.90;;;;;;4879973;29;20204;-59
2023/05/22 11:47:15;;;;;;;27.98;19.45;;;19.50;99.90;;;;;;4880248;29;20216;-59
2023/05/22 11:49:41;;;;;;;34.17;20.90;;;19.50;99.90;;;;;;4880210;29;20182;-59
2023/05/22 11:52:09;;;;;;;31.35;20.73;;;19.60;99.90;;;;;;4880065;29;20173;-60
2023/05/22 11:54:35;;;;;;;27.13;20.08;;;19.30;99.90;;;;;;4880163;29;20296;-59
2023/05/22 11:57:06;;;;;;;30.88;19.23;;;19.30;99.90;;;;;;4879974;29;20264;-59
2023/05/22 11:59:32;;;;;;;25.20;18.80;;;19.50;99.90;;;;;;4879809;29;20181;-60
2023/05/22 12:01:58;;;;;;;34.33;21.70;;;19.50;99.90;;;;;;4879984;29;20214;-59
2023/05/22 12:04:24;;;;;;;29.23;20.98;;;19.70;99.90;;;;;;4879880;29;20233;-59
2023/05/22 12:06:51;;;;;;;30.10;20.63;;;19.90;99.90;;;;;;4879898;29;20181;-59
2023/05/22 12:09:17;;;;;;;25.67;18.92;;;20.00;99.90;;;;;;4879987;29;20182;-59
2023/05/22 12:11:46;;;;;;;28.17;20.00;;;20.00;99.90;;;;;;4879604;29;20209;-59
2023/05/22 12:14:12;;;;;;;28.25;18.88;;;20.00;99.90;;;;;;4879798;29;20640;-59
2023/05/22 12:16:38;;;;;;;30.80;19.38;;;19.90;99.90;;;;;;4879918;29;20196;-57
2023/05/22 12:19:08;;;;;;;27.48;20.02;;;19.90;99.90;;;;;;4879711;29;20177;-57
2023/05/22 12:21:35;;;;;;;29.02;19.10;;;19.90;99.90;;;;;;4879520;29;20177;-59
2023/05/22 12:24:05;;;;;;;25.80;18.00;;;19.90;99.90;;;;;;4879555;29;20177;-59
2023/05/22 12:26:35;;;;;;;27.65;19.20;;;20.00;99.90;;;;;;4879398;29;20178;-59
2023/05/22 12:29:01;;;;;;;33.25;19.58;;;20.10;99.90;;;;;;4879658;29;20205;-59
2023/05/22 12:31:27;;;;;;;28.55;19.25;;;20.10;99.90;;;;;;4879543;29;20177;-60